sensor_id;sensor_type;location;lat;lon;timestamp;temperature;humidity
420;DHT22;42600;54.408;13.016;2024-03-29T00:00:12;7.60;92.70
420;DHT22;42600;54.408;13.016;2024-03-29T00:02:38;7.60;92.70
420;DHT22;42600;54.408;13.016;2024-03-29T00:05:04;7.60;92.70
420;DHT22;42600;54.408;13.016;2024-03-29T00:07:30;7.60;92.70
420;DHT22;42600;54.408;13.016;2024-03-29T00:09:57;7.60;92.70
420;DHT22;42600;54.408;13.016;2024-03-29T00:12:23;7.60;92.70
420;DHT22;42600;54.408;13.016;2024-03-29T00:14:48;7.60;92.70
420;DHT22;42600;54.408;13.016;2024-03-29T00:17:14;7.60;92.70
420;DHT22;42600;54.408;13.016;2024-03-29T00:19:40;7.60;92.70
420;DHT22;42600;54.408;13.016;2024-03-29T00:22:05;7.60;92.70
420;DHT22;42600;54.408;13.016;2024-03-29T00:24:31;7.50;92.70
420;DHT22;42600;54.408;13.016;2024-03-29T00:26:58;7.50;92.70
420;DHT22;42600;54.408;13.016;2024-03-29T00:29:24;7.50;92.70
420;DHT22;42600;54.408;13.016;2024-03-29T00:31:50;7.50;92.70
420;DHT22;42600;54.408;13.016;2024-03-29T00:34:15;7.40;92.70
420;DHT22;42600;54.408;13.016;2024-03-29T00:36:41;7.40;92.70
420;DHT22;42600;54.408;13.016;2024-03-29T00:39:07;7.40;92.70
420;DHT22;42600;54.408;13.016;2024-03-29T00:41:33;7.50;92.70
420;DHT22;42600;54.408;13.016;2024-03-29T00:44:00;7.50;92.70
420;DHT22;42600;54.408;13.016;2024-03-29T00:46:25;7.50;92.70
420;DHT22;42600;54.408;13.016;2024-03-29T00:48:51;7.40;92.70
420;DHT22;42600;54.408;13.016;2024-03-29T00:51:17;7.40;92.70
420;DHT22;42600;54.408;13.016;2024-03-29T00:53:42;7.40;92.70
420;DHT22;42600;54.408;13.016;2024-03-29T00:56:08;7.40;92.70
420;DHT22;42600;54.408;13.016;2024-03-29T00:58:34;7.30;92.70
420;DHT22;42600;54.408;13.016;2024-03-29T01:01:01;7.30;92.70
420;DHT22;42600;54.408;13.016;2024-03-29T01:03:26;7.30;92.70
420;DHT22;42600;54.408;13.016;2024-03-29T01:05:53;7.20;92.70
420;DHT22;42600;54.408;13.016;2024-03-29T01:08:18;7.30;92.70
420;DHT22;42600;54.408;13.016;2024-03-29T01:10:44;7.20;92.70
420;DHT22;42600;54.408;13.016;2024-03-29T01:13:10;7.20;92.70
420;DHT22;42600;54.408;13.016;2024-03-29T01:15:35;7.20;92.70
420;DHT22;42600;54.408;13.016;2024-03-29T01:18:03;7.10;92.70
420;DHT22;42600;54.408;13.016;2024-03-29T01:20:28;7.10;92.70
420;DHT22;42600;54.408;13.016;2024-03-29T01:22:54;7.10;92.70
420;DHT22;42600;54.408;13.016;2024-03-29T01:25:20;7.10;92.70
420;DHT22;42600;54.408;13.016;2024-03-29T01:27:46;7.10;92.70
420;DHT22;42600;54.408;13.016;2024-03-29T01:30:12;7.10;92.70
420;DHT22;42600;54.408;13.016;2024-03-29T01:32:38;7.10;92.70
420;DHT22;42600;54.408;13.016;2024-03-29T01:35:05;7.10;92.70
420;DHT22;42600;54.408;13.016;2024-03-29T01:37:31;7.00;92.70
420;DHT22;42600;54.408;13.016;2024-03-29T01:39:56;7.00;92.70
420;DHT22;42600;54.408;13.016;2024-03-29T01:42:22;7.00;92.70
420;DHT22;42600;54.408;13.016;2024-03-29T01:44:48;7.10;92.70
420;DHT22;42600;54.408;13.016;2024-03-29T01:47:17;7.00;92.70
420;DHT22;42600;54.408;13.016;2024-03-29T01:49:44;7.00;92.70
420;DHT22;42600;54.408;13.016;2024-03-29T01:52:13;7.00;92.70
420;DHT22;42600;54.408;13.016;2024-03-29T01:54:40;7.00;92.70
420;DHT22;42600;54.408;13.016;2024-03-29T01:57:08;7.00;92.70
420;DHT22;42600;54.408;13.016;2024-03-29T01:59:35;7.00;92.70
420;DHT22;42600;54.408;13.016;2024-03-29T02:02:01;7.00;92.70
420;DHT22;42600;54.408;13.016;2024-03-29T02:04:28;7.00;92.70
420;DHT22;42600;54.408;13.016;2024-03-29T02:06:55;7.00;92.70
420;DHT22;42600;54.408;13.016;2024-03-29T02:09:23;6.90;92.70
420;DHT22;42600;54.408;13.016;2024-03-29T02:11:49;6.90;92.70
420;DHT22;42600;54.408;13.016;2024-03-29T02:14:17;6.90;92.70
420;DHT22;42600;54.408;13.016;2024-03-29T02:16:44;6.90;92.70
420;DHT22;42600;54.408;13.016;2024-03-29T02:19:11;6.90;92.70
420;DHT22;42600;54.408;13.016;2024-03-29T02:21:41;6.90;92.70
420;DHT22;42600;54.408;13.016;2024-03-29T02:24:10;6.90;92.70
420;DHT22;42600;54.408;13.016;2024-03-29T02:26:38;6.90;92.70
420;DHT22;42600;54.408;13.016;2024-03-29T02:29:08;6.80;92.70
420;DHT22;42600;54.408;13.016;2024-03-29T02:31:35;6.80;92.70
420;DHT22;42600;54.408;13.016;2024-03-29T02:34:01;6.80;92.70
420;DHT22;42600;54.408;13.016;2024-03-29T02:36:28;6.90;92.70
420;DHT22;42600;54.408;13.016;2024-03-29T02:38:55;6.80;92.70
420;DHT22;42600;54.408;13.016;2024-03-29T02:41:23;6.80;92.70
420;DHT22;42600;54.408;13.016;2024-03-29T02:43:51;6.80;92.70
420;DHT22;42600;54.408;13.016;2024-03-29T02:46:16;6.80;92.70
420;DHT22;42600;54.408;13.016;2024-03-29T02:48:43;6.80;92.70
420;DHT22;42600;54.408;13.016;2024-03-29T02:51:09;6.70;92.70
420;DHT22;42600;54.408;13.016;2024-03-29T02:53:35;6.70;92.70
420;DHT22;42600;54.408;13.016;2024-03-29T02:56:03;6.70;92.70
420;DHT22;42600;54.408;13.016;2024-03-29T02:58:31;6.70;92.70
420;DHT22;42600;54.408;13.016;2024-03-29T03:00:57;6.70;92.70
420;DHT22;42600;54.408;13.016;2024-03-29T03:03:30;6.70;92.70
420;DHT22;42600;54.408;13.016;2024-03-29T03:05:56;6.70;92.70
420;DHT22;42600;54.408;13.016;2024-03-29T03:08:22;6.70;92.70
420;DHT22;42600;54.408;13.016;2024-03-29T03:11:06;6.60;92.70
420;DHT22;42600;54.408;13.016;2024-03-29T03:13:34;6.60;92.70
420;DHT22;42600;54.408;13.016;2024-03-29T03:16:00;6.60;92.70
420;DHT22;42600;54.408;13.016;2024-03-29T03:18:26;6.60;92.70
420;DHT22;42600;54.408;13.016;2024-03-29T03:20:53;6.60;92.70
420;DHT22;42600;54.408;13.016;2024-03-29T03:23:19;6.60;92.70
420;DHT22;42600;54.408;13.016;2024-03-29T03:25:53;6.50;92.70
420;DHT22;42600;54.408;13.016;2024-03-29T03:28:18;6.50;92.70
420;DHT22;42600;54.408;13.016;2024-03-29T03:30:46;6.40;92.70
420;DHT22;42600;54.408;13.016;2024-03-29T03:33:12;6.40;92.70
420;DHT22;42600;54.408;13.016;2024-03-29T03:35:38;6.40;92.70
420;DHT22;42600;54.408;13.016;2024-03-29T03:38:04;6.30;92.70
420;DHT22;42600;54.408;13.016;2024-03-29T03:40:31;6.40;92.70
420;DHT22;42600;54.408;13.016;2024-03-29T03:42:56;6.30;92.70
420;DHT22;42600;54.408;13.016;2024-03-29T03:45:23;6.40;92.70
420;DHT22;42600;54.408;13.016;2024-03-29T03:47:50;6.30;92.70
420;DHT22;42600;54.408;13.016;2024-03-29T03:50:17;6.30;92.70
420;DHT22;42600;54.408;13.016;2024-03-29T03:52:42;6.20;92.70
420;DHT22;42600;54.408;13.016;2024-03-29T03:55:09;6.20;92.70
420;DHT22;42600;54.408;13.016;2024-03-29T03:57:35;6.10;92.70
420;DHT22;42600;54.408;13.016;2024-03-29T04:00:01;6.10;92.70
420;DHT22;42600;54.408;13.016;2024-03-29T04:02:28;6.10;92.70
420;DHT22;42600;54.408;13.016;2024-03-29T04:04:56;6.10;92.70
420;DHT22;42600;54.408;13.016;2024-03-29T04:07:22;6.10;92.70
420;DHT22;42600;54.408;13.016;2024-03-29T04:09:50;6.00;92.70
420;DHT22;42600;54.408;13.016;2024-03-29T04:12:16;6.00;92.70
420;DHT22;42600;54.408;13.016;2024-03-29T04:14:43;6.00;92.70
420;DHT22;42600;54.408;13.016;2024-03-29T04:17:08;6.00;92.70
420;DHT22;42600;54.408;13.016;2024-03-29T04:19:35;5.90;92.70
420;DHT22;42600;54.408;13.016;2024-03-29T04:22:02;5.90;92.70
420;DHT22;42600;54.408;13.016;2024-03-29T04:24:29;5.90;92.70
420;DHT22;42600;54.408;13.016;2024-03-29T04:26:54;5.90;92.70
420;DHT22;42600;54.408;13.016;2024-03-29T04:29:21;5.80;92.70
420;DHT22;42600;54.408;13.016;2024-03-29T04:31:46;5.80;92.70
420;DHT22;42600;54.408;13.016;2024-03-29T04:34:13;5.70;92.70
420;DHT22;42600;54.408;13.016;2024-03-29T04:36:39;5.70;92.70
420;DHT22;42600;54.408;13.016;2024-03-29T04:39:07;5.80;92.70
420;DHT22;42600;54.408;13.016;2024-03-29T04:41:33;5.80;92.70
420;DHT22;42600;54.408;13.016;2024-03-29T04:44:00;5.70;92.70
420;DHT22;42600;54.408;13.016;2024-03-29T04:46:29;5.60;92.70
420;DHT22;42600;54.408;13.016;2024-03-29T04:48:56;5.60;92.70
420;DHT22;42600;54.408;13.016;2024-03-29T04:51:23;5.80;92.70
420;DHT22;42600;54.408;13.016;2024-03-29T04:53:50;5.80;92.70
420;DHT22;42600;54.408;13.016;2024-03-29T04:56:18;5.80;92.70
420;DHT22;42600;54.408;13.016;2024-03-29T04:58:44;5.80;92.70
420;DHT22;42600;54.408;13.016;2024-03-29T05:01:12;5.80;92.70
420;DHT22;42600;54.408;13.016;2024-03-29T05:03:38;5.70;92.70
420;DHT22;42600;54.408;13.016;2024-03-29T05:06:05;5.80;92.70
420;DHT22;42600;54.408;13.016;2024-03-29T05:08:32;5.80;92.70
420;DHT22;42600;54.408;13.016;2024-03-29T05:10:58;5.80;92.70
420;DHT22;42600;54.408;13.016;2024-03-29T05:13:26;5.80;92.70
420;DHT22;42600;54.408;13.016;2024-03-29T05:15:53;5.80;92.70
420;DHT22;42600;54.408;13.016;2024-03-29T05:18:19;5.80;92.70
420;DHT22;42600;54.408;13.016;2024-03-29T05:20:46;5.80;92.70
420;DHT22;42600;54.408;13.016;2024-03-29T05:23:16;5.90;92.70
420;DHT22;42600;54.408;13.016;2024-03-29T05:25:42;5.90;92.70
420;DHT22;42600;54.408;13.016;2024-03-29T05:28:09;5.90;92.70
420;DHT22;42600;54.408;13.016;2024-03-29T05:30:37;5.90;92.70
420;DHT22;42600;54.408;13.016;2024-03-29T05:33:04;5.90;92.70
420;DHT22;42600;54.408;13.016;2024-03-29T05:35:32;6.00;92.70
420;DHT22;42600;54.408;13.016;2024-03-29T05:37:58;6.00;92.70
420;DHT22;42600;54.408;13.016;2024-03-29T05:40:25;6.10;92.70
420;DHT22;42600;54.408;13.016;2024-03-29T05:42:53;6.10;92.70
420;DHT22;42600;54.408;13.016;2024-03-29T05:45:24;6.30;92.70
420;DHT22;42600;54.408;13.016;2024-03-29T05:47:53;6.40;92.70
420;DHT22;42600;54.408;13.016;2024-03-29T05:50:21;6.50;92.70
420;DHT22;42600;54.408;13.016;2024-03-29T05:52:47;6.60;92.70
420;DHT22;42600;54.408;13.016;2024-03-29T05:55:14;6.70;92.70
420;DHT22;42600;54.408;13.016;2024-03-29T05:57:41;6.80;92.70
420;DHT22;42600;54.408;13.016;2024-03-29T06:00:11;6.80;92.70
420;DHT22;42600;54.408;13.016;2024-03-29T06:02:38;6.90;92.70
420;DHT22;42600;54.408;13.016;2024-03-29T06:05:07;7.00;92.70
420;DHT22;42600;54.408;13.016;2024-03-29T06:07:34;7.00;92.70
420;DHT22;42600;54.408;13.016;2024-03-29T06:10:00;7.10;92.70
420;DHT22;42600;54.408;13.016;2024-03-29T06:12:30;7.20;92.70
420;DHT22;42600;54.408;13.016;2024-03-29T06:14:56;7.20;92.70
420;DHT22;42600;54.408;13.016;2024-03-29T06:17:40;7.20;92.70
420;DHT22;42600;54.408;13.016;2024-03-29T06:20:08;7.20;92.70
420;DHT22;42600;54.408;13.016;2024-03-29T06:22:35;7.30;92.70
420;DHT22;42600;54.408;13.016;2024-03-29T06:25:02;7.30;92.70
420;DHT22;42600;54.408;13.016;2024-03-29T06:27:30;7.30;92.70
420;DHT22;42600;54.408;13.016;2024-03-29T06:29:57;7.30;92.70
420;DHT22;42600;54.408;13.016;2024-03-29T06:32:23;7.30;92.70
420;DHT22;42600;54.408;13.016;2024-03-29T06:34:50;7.40;92.70
420;DHT22;42600;54.408;13.016;2024-03-29T06:37:18;7.40;92.70
420;DHT22;42600;54.408;13.016;2024-03-29T06:39:47;7.40;92.70
420;DHT22;42600;54.408;13.016;2024-03-29T06:42:13;7.40;92.70
420;DHT22;42600;54.408;13.016;2024-03-29T06:44:40;7.50;92.70
420;DHT22;42600;54.408;13.016;2024-03-29T06:47:07;7.50;92.70
420;DHT22;42600;54.408;13.016;2024-03-29T06:49:33;7.50;92.70
420;DHT22;42600;54.408;13.016;2024-03-29T06:52:00;7.50;92.70
420;DHT22;42600;54.408;13.016;2024-03-29T06:54:28;7.60;92.70
420;DHT22;42600;54.408;13.016;2024-03-29T06:56:56;7.60;92.70
420;DHT22;42600;54.408;13.016;2024-03-29T06:59:23;7.60;92.70
420;DHT22;42600;54.408;13.016;2024-03-29T07:01:50;7.70;92.70
420;DHT22;42600;54.408;13.016;2024-03-29T07:04:18;7.70;92.70
420;DHT22;42600;54.408;13.016;2024-03-29T07:06:46;7.70;92.70
420;DHT22;42600;54.408;13.016;2024-03-29T07:09:15;7.80;92.70
420;DHT22;42600;54.408;13.016;2024-03-29T07:11:45;7.80;92.70
420;DHT22;42600;54.408;13.016;2024-03-29T07:14:12;7.80;92.70
420;DHT22;42600;54.408;13.016;2024-03-29T07:16:38;7.80;92.70
420;DHT22;42600;54.408;13.016;2024-03-29T07:19:05;7.90;92.70
420;DHT22;42600;54.408;13.016;2024-03-29T07:21:31;7.90;92.70
420;DHT22;42600;54.408;13.016;2024-03-29T07:23:58;7.90;92.70
420;DHT22;42600;54.408;13.016;2024-03-29T07:26:25;7.90;92.70
420;DHT22;42600;54.408;13.016;2024-03-29T07:28:52;7.90;92.70
420;DHT22;42600;54.408;13.016;2024-03-29T07:31:19;8.00;92.70
420;DHT22;42600;54.408;13.016;2024-03-29T07:33:46;8.00;92.70
420;DHT22;42600;54.408;13.016;2024-03-29T07:36:12;8.00;92.70
420;DHT22;42600;54.408;13.016;2024-03-29T07:38:39;8.00;92.70
420;DHT22;42600;54.408;13.016;2024-03-29T07:41:06;8.10;92.70
420;DHT22;42600;54.408;13.016;2024-03-29T07:43:39;8.10;92.70
420;DHT22;42600;54.408;13.016;2024-03-29T07:46:07;8.10;92.70
420;DHT22;42600;54.408;13.016;2024-03-29T07:48:35;8.10;92.70
420;DHT22;42600;54.408;13.016;2024-03-29T07:51:01;8.20;92.70
420;DHT22;42600;54.408;13.016;2024-03-29T07:53:28;8.20;92.70
420;DHT22;42600;54.408;13.016;2024-03-29T07:55:54;8.20;92.70
420;DHT22;42600;54.408;13.016;2024-03-29T07:58:21;8.20;92.70
420;DHT22;42600;54.408;13.016;2024-03-29T08:00:49;8.20;92.70
420;DHT22;42600;54.408;13.016;2024-03-29T08:03:17;8.20;92.70
420;DHT22;42600;54.408;13.016;2024-03-29T08:05:55;8.20;92.70
420;DHT22;42600;54.408;13.016;2024-03-29T08:08:22;8.30;92.70
420;DHT22;42600;54.408;13.016;2024-03-29T08:10:50;8.30;92.70
420;DHT22;42600;54.408;13.016;2024-03-29T08:13:17;8.30;92.70
420;DHT22;42600;54.408;13.016;2024-03-29T08:15:45;8.30;92.70
420;DHT22;42600;54.408;13.016;2024-03-29T08:18:12;8.30;92.70
420;DHT22;42600;54.408;13.016;2024-03-29T08:20:40;8.40;92.70
420;DHT22;42600;54.408;13.016;2024-03-29T08:23:07;8.40;92.70
420;DHT22;42600;54.408;13.016;2024-03-29T08:25:33;8.40;92.70
420;DHT22;42600;54.408;13.016;2024-03-29T08:28:00;8.40;92.70
420;DHT22;42600;54.408;13.016;2024-03-29T08:30:27;8.50;92.70
420;DHT22;42600;54.408;13.016;2024-03-29T08:33:00;8.50;92.70
420;DHT22;42600;54.408;13.016;2024-03-29T08:35:27;8.50;92.70
420;DHT22;42600;54.408;13.016;2024-03-29T08:37:55;8.60;92.70
420;DHT22;42600;54.408;13.016;2024-03-29T08:40:22;8.60;92.70
420;DHT22;42600;54.408;13.016;2024-03-29T08:42:49;8.60;92.70
420;DHT22;42600;54.408;13.016;2024-03-29T08:45:16;8.70;92.70
420;DHT22;42600;54.408;13.016;2024-03-29T08:47:42;8.70;92.70
420;DHT22;42600;54.408;13.016;2024-03-29T08:50:09;8.70;92.70
420;DHT22;42600;54.408;13.016;2024-03-29T08:52:36;8.80;92.70
420;DHT22;42600;54.408;13.016;2024-03-29T08:55:05;8.80;92.70
420;DHT22;42600;54.408;13.016;2024-03-29T08:57:32;8.80;92.70
420;DHT22;42600;54.408;13.016;2024-03-29T08:59:59;8.90;92.70
420;DHT22;42600;54.408;13.016;2024-03-29T09:02:25;8.90;92.70
420;DHT22;42600;54.408;13.016;2024-03-29T09:04:53;8.90;92.70
420;DHT22;42600;54.408;13.016;2024-03-29T09:07:19;8.90;92.70
420;DHT22;42600;54.408;13.016;2024-03-29T09:09:48;9.00;92.70
420;DHT22;42600;54.408;13.016;2024-03-29T09:12:16;9.00;92.70
420;DHT22;42600;54.408;13.016;2024-03-29T09:14:44;9.00;92.70
420;DHT22;42600;54.408;13.016;2024-03-29T09:17:10;9.00;92.70
420;DHT22;42600;54.408;13.016;2024-03-29T09:19:37;9.10;92.70
420;DHT22;42600;54.408;13.016;2024-03-29T09:22:04;9.10;92.70
420;DHT22;42600;54.408;13.016;2024-03-29T09:24:30;9.10;92.70
420;DHT22;42600;54.408;13.016;2024-03-29T09:26:59;9.10;92.70
420;DHT22;42600;54.408;13.016;2024-03-29T09:29:27;9.10;92.70
420;DHT22;42600;54.408;13.016;2024-03-29T09:31:54;9.20;92.70
420;DHT22;42600;54.408;13.016;2024-03-29T09:34:20;9.20;92.70
420;DHT22;42600;54.408;13.016;2024-03-29T09:36:48;9.20;92.70
420;DHT22;42600;54.408;13.016;2024-03-29T09:39:15;9.20;92.70
420;DHT22;42600;54.408;13.016;2024-03-29T09:41:43;9.20;92.70
420;DHT22;42600;54.408;13.016;2024-03-29T09:44:11;9.30;92.70
420;DHT22;42600;54.408;13.016;2024-03-29T09:46:39;9.30;92.70
420;DHT22;42600;54.408;13.016;2024-03-29T09:49:08;9.30;92.70
420;DHT22;42600;54.408;13.016;2024-03-29T09:51:36;9.40;92.70
420;DHT22;42600;54.408;13.016;2024-03-29T09:54:03;9.40;92.70
420;DHT22;42600;54.408;13.016;2024-03-29T09:56:33;9.50;92.70
420;DHT22;42600;54.408;13.016;2024-03-29T09:59:03;9.50;92.70
420;DHT22;42600;54.408;13.016;2024-03-29T10:01:30;9.50;92.70
420;DHT22;42600;54.408;13.016;2024-03-29T10:03:59;9.60;92.70
420;DHT22;42600;54.408;13.016;2024-03-29T10:06:28;9.60;92.70
420;DHT22;42600;54.408;13.016;2024-03-29T10:08:56;9.70;92.70
420;DHT22;42600;54.408;13.016;2024-03-29T10:11:23;9.70;92.70
420;DHT22;42600;54.408;13.016;2024-03-29T10:13:50;9.70;92.70
420;DHT22;42600;54.408;13.016;2024-03-29T10:16:18;9.80;92.70
420;DHT22;42600;54.408;13.016;2024-03-29T10:18:47;9.80;92.70
420;DHT22;42600;54.408;13.016;2024-03-29T10:21:15;9.90;92.70
420;DHT22;42600;54.408;13.016;2024-03-29T10:23:42;9.90;92.70
420;DHT22;42600;54.408;13.016;2024-03-29T10:26:11;9.90;92.70
420;DHT22;42600;54.408;13.016;2024-03-29T10:28:39;10.00;92.70
420;DHT22;42600;54.408;13.016;2024-03-29T10:31:05;10.10;92.70
420;DHT22;42600;54.408;13.016;2024-03-29T10:33:33;10.10;92.70
420;DHT22;42600;54.408;13.016;2024-03-29T10:36:01;10.20;92.70
420;DHT22;42600;54.408;13.016;2024-03-29T10:38:31;10.30;92.70
420;DHT22;42600;54.408;13.016;2024-03-29T10:40:58;10.50;92.70
420;DHT22;42600;54.408;13.016;2024-03-29T10:43:27;10.60;92.70
420;DHT22;42600;54.408;13.016;2024-03-29T10:45:55;10.60;92.70
420;DHT22;42600;54.408;13.016;2024-03-29T10:48:25;10.70;92.70
420;DHT22;42600;54.408;13.016;2024-03-29T10:50:54;10.80;92.30
420;DHT22;42600;54.408;13.016;2024-03-29T10:53:23;10.90;92.50
420;DHT22;42600;54.408;13.016;2024-03-29T10:55:54;10.90;92.40
420;DHT22;42600;54.408;13.016;2024-03-29T10:58:22;11.00;92.20
420;DHT22;42600;54.408;13.016;2024-03-29T11:00:56;11.00;92.30
420;DHT22;42600;54.408;13.016;2024-03-29T11:03:28;11.10;91.90
420;DHT22;42600;54.408;13.016;2024-03-29T11:06:02;11.20;91.30
420;DHT22;42600;54.408;13.016;2024-03-29T11:08:31;11.20;91.50
420;DHT22;42600;54.408;13.016;2024-03-29T11:11:05;11.20;91.40
420;DHT22;42600;54.408;13.016;2024-03-29T11:13:36;11.30;91.60
420;DHT22;42600;54.408;13.016;2024-03-29T11:16:04;11.30;91.90
420;DHT22;42600;54.408;13.016;2024-03-29T11:18:31;11.30;91.80
420;DHT22;42600;54.408;13.016;2024-03-29T11:20:58;11.20;91.50
420;DHT22;42600;54.408;13.016;2024-03-29T11:23:27;11.30;91.30
420;DHT22;42600;54.408;13.016;2024-03-29T11:25:55;11.30;91.50
420;DHT22;42600;54.408;13.016;2024-03-29T11:28:26;11.30;91.80
420;DHT22;42600;54.408;13.016;2024-03-29T11:30:56;11.30;92.10
420;DHT22;42600;54.408;13.016;2024-03-29T11:33:33;11.30;92.10
420;DHT22;42600;54.408;13.016;2024-03-29T11:36:00;11.30;92.40
420;DHT22;42600;54.408;13.016;2024-03-29T11:38:31;11.30;92.40
420;DHT22;42600;54.408;13.016;2024-03-29T11:41:05;11.40;92.10
420;DHT22;42600;54.408;13.016;2024-03-29T11:43:34;11.40;92.20
420;DHT22;42600;54.408;13.016;2024-03-29T11:46:02;11.40;92.20
420;DHT22;42600;54.408;13.016;2024-03-29T11:48:30;11.50;91.30
420;DHT22;42600;54.408;13.016;2024-03-29T11:50:58;11.50;92.00
420;DHT22;42600;54.408;13.016;2024-03-29T11:53:25;11.60;91.80
420;DHT22;42600;54.408;13.016;2024-03-29T11:55:53;11.60;92.00
420;DHT22;42600;54.408;13.016;2024-03-29T11:58:23;11.70;91.70
420;DHT22;42600;54.408;13.016;2024-03-29T12:00:52;11.70;91.60
420;DHT22;42600;54.408;13.016;2024-03-29T12:03:20;11.80;90.80
420;DHT22;42600;54.408;13.016;2024-03-29T12:05:48;11.80;91.00
420;DHT22;42600;54.408;13.016;2024-03-29T12:08:14;11.80;89.30
420;DHT22;42600;54.408;13.016;2024-03-29T12:10:41;11.90;90.90
420;DHT22;42600;54.408;13.016;2024-03-29T12:13:08;11.90;90.80
420;DHT22;42600;54.408;13.016;2024-03-29T12:15:35;11.90;90.10
420;DHT22;42600;54.408;13.016;2024-03-29T12:18:04;11.90;89.80
420;DHT22;42600;54.408;13.016;2024-03-29T12:20:31;11.90;88.70
420;DHT22;42600;54.408;13.016;2024-03-29T12:22:59;11.90;89.30
420;DHT22;42600;54.408;13.016;2024-03-29T12:25:27;11.90;89.80
420;DHT22;42600;54.408;13.016;2024-03-29T12:27:54;12.00;90.00
420;DHT22;42600;54.408;13.016;2024-03-29T12:30:21;12.00;90.30
420;DHT22;42600;54.408;13.016;2024-03-29T12:32:48;11.90;90.10
420;DHT22;42600;54.408;13.016;2024-03-29T12:35:16;11.90;90.40
420;DHT22;42600;54.408;13.016;2024-03-29T12:37:49;11.90;89.50
420;DHT22;42600;54.408;13.016;2024-03-29T12:40:17;11.90;89.80
420;DHT22;42600;54.408;13.016;2024-03-29T12:42:48;11.90;90.80
420;DHT22;42600;54.408;13.016;2024-03-29T12:45:14;11.80;90.60
420;DHT22;42600;54.408;13.016;2024-03-29T12:47:42;11.80;91.20
420;DHT22;42600;54.408;13.016;2024-03-29T12:50:09;11.80;91.40
420;DHT22;42600;54.408;13.016;2024-03-29T12:52:41;11.80;91.60
420;DHT22;42600;54.408;13.016;2024-03-29T12:55:08;11.80;90.70
420;DHT22;42600;54.408;13.016;2024-03-29T12:57:35;11.80;89.70
420;DHT22;42600;54.408;13.016;2024-03-29T13:00:03;11.80;90.90
420;DHT22;42600;54.408;13.016;2024-03-29T13:02:34;11.80;92.00
420;DHT22;42600;54.408;13.016;2024-03-29T13:05:01;11.70;91.40
420;DHT22;42600;54.408;13.016;2024-03-29T13:07:28;11.80;92.50
420;DHT22;42600;54.408;13.016;2024-03-29T13:09:55;11.80;92.20
420;DHT22;42600;54.408;13.016;2024-03-29T13:12:24;11.70;92.60
420;DHT22;42600;54.408;13.016;2024-03-29T13:14:51;11.70;92.70
420;DHT22;42600;54.408;13.016;2024-03-29T13:17:17;11.70;92.70
420;DHT22;42600;54.408;13.016;2024-03-29T13:19:44;11.60;92.70
420;DHT22;42600;54.408;13.016;2024-03-29T13:22:11;11.60;92.70
420;DHT22;42600;54.408;13.016;2024-03-29T13:24:37;11.60;92.70
420;DHT22;42600;54.408;13.016;2024-03-29T13:27:05;11.60;92.70
420;DHT22;42600;54.408;13.016;2024-03-29T13:29:32;11.60;92.70
420;DHT22;42600;54.408;13.016;2024-03-29T13:31:58;11.60;92.70
420;DHT22;42600;54.408;13.016;2024-03-29T13:34:25;11.60;92.70
420;DHT22;42600;54.408;13.016;2024-03-29T13:36:51;11.60;92.70
420;DHT22;42600;54.408;13.016;2024-03-29T13:39:18;11.60;92.70
420;DHT22;42600;54.408;13.016;2024-03-29T13:41:45;11.60;92.70
420;DHT22;42600;54.408;13.016;2024-03-29T13:44:12;11.70;92.70
420;DHT22;42600;54.408;13.016;2024-03-29T13:46:43;11.70;92.70
420;DHT22;42600;54.408;13.016;2024-03-29T13:49:09;11.70;92.70
420;DHT22;42600;54.408;13.016;2024-03-29T13:51:37;11.70;92.70
420;DHT22;42600;54.408;13.016;2024-03-29T13:54:04;11.80;92.70
420;DHT22;42600;54.408;13.016;2024-03-29T13:56:30;11.80;92.70
420;DHT22;42600;54.408;13.016;2024-03-29T13:58:57;11.80;92.70
420;DHT22;42600;54.408;13.016;2024-03-29T14:01:25;11.80;92.70
420;DHT22;42600;54.408;13.016;2024-03-29T14:03:51;11.80;92.70
420;DHT22;42600;54.408;13.016;2024-03-29T14:06:18;11.80;92.70
420;DHT22;42600;54.408;13.016;2024-03-29T14:08:45;11.80;92.70
420;DHT22;42600;54.408;13.016;2024-03-29T14:11:11;11.80;92.70
420;DHT22;42600;54.408;13.016;2024-03-29T14:13:39;11.80;92.70
420;DHT22;42600;54.408;13.016;2024-03-29T14:16:06;11.80;92.70
420;DHT22;42600;54.408;13.016;2024-03-29T14:18:34;11.80;92.70
420;DHT22;42600;54.408;13.016;2024-03-29T14:21:02;11.80;92.70
420;DHT22;42600;54.408;13.016;2024-03-29T14:23:29;11.80;92.70
420;DHT22;42600;54.408;13.016;2024-03-29T14:25:56;11.80;92.70
420;DHT22;42600;54.408;13.016;2024-03-29T14:28:23;11.80;92.70
420;DHT22;42600;54.408;13.016;2024-03-29T14:30:49;11.90;92.70
420;DHT22;42600;54.408;13.016;2024-03-29T14:33:16;11.90;92.70
420;DHT22;42600;54.408;13.016;2024-03-29T14:35:44;11.90;92.70
420;DHT22;42600;54.408;13.016;2024-03-29T14:38:13;12.00;92.70
420;DHT22;42600;54.408;13.016;2024-03-29T14:40:40;12.00;92.70
420;DHT22;42600;54.408;13.016;2024-03-29T14:43:07;12.00;92.70
420;DHT22;42600;54.408;13.016;2024-03-29T14:45:34;12.10;92.70
420;DHT22;42600;54.408;13.016;2024-03-29T14:48:00;12.10;92.70
420;DHT22;42600;54.408;13.016;2024-03-29T14:50:27;12.20;92.70
420;DHT22;42600;54.408;13.016;2024-03-29T14:52:55;12.20;92.70
420;DHT22;42600;54.408;13.016;2024-03-29T14:55:22;12.20;92.70
420;DHT22;42600;54.408;13.016;2024-03-29T14:57:49;12.20;92.70
420;DHT22;42600;54.408;13.016;2024-03-29T15:00:18;12.30;92.70
420;DHT22;42600;54.408;13.016;2024-03-29T15:02:45;12.30;92.70
420;DHT22;42600;54.408;13.016;2024-03-29T15:05:12;12.30;92.70
420;DHT22;42600;54.408;13.016;2024-03-29T15:07:39;12.30;92.70
420;DHT22;42600;54.408;13.016;2024-03-29T15:10:07;12.30;92.70
420;DHT22;42600;54.408;13.016;2024-03-29T15:12:35;12.30;92.70
420;DHT22;42600;54.408;13.016;2024-03-29T15:15:02;12.30;92.70
420;DHT22;42600;54.408;13.016;2024-03-29T15:17:29;12.30;92.70
420;DHT22;42600;54.408;13.016;2024-03-29T15:19:55;12.30;92.70
420;DHT22;42600;54.408;13.016;2024-03-29T15:22:22;12.40;92.70
420;DHT22;42600;54.408;13.016;2024-03-29T15:24:49;12.40;92.70
420;DHT22;42600;54.408;13.016;2024-03-29T15:27:17;12.40;92.70
420;DHT22;42600;54.408;13.016;2024-03-29T15:29:54;12.40;92.70
420;DHT22;42600;54.408;13.016;2024-03-29T15:32:20;12.50;92.70
420;DHT22;42600;54.408;13.016;2024-03-29T15:34:47;12.50;92.70
420;DHT22;42600;54.408;13.016;2024-03-29T15:37:13;12.60;92.70
420;DHT22;42600;54.408;13.016;2024-03-29T15:39:40;12.60;92.70
420;DHT22;42600;54.408;13.016;2024-03-29T15:42:07;12.60;92.70
420;DHT22;42600;54.408;13.016;2024-03-29T15:44:36;12.60;92.70
420;DHT22;42600;54.408;13.016;2024-03-29T15:47:03;12.60;92.70
420;DHT22;42600;54.408;13.016;2024-03-29T15:49:29;12.60;92.70
420;DHT22;42600;54.408;13.016;2024-03-29T15:51:56;12.70;92.70
420;DHT22;42600;54.408;13.016;2024-03-29T15:54:22;12.70;92.70
420;DHT22;42600;54.408;13.016;2024-03-29T15:56:51;12.70;92.70